sensor_id;sensor_type;location;lat;lon;timestamp;P1;durP1;ratioP1;P2;durP2;ratioP2
28545;SDS011;15749;49.606;8.738;2022-11-02T00:01:55;4.40;;;2.10;;
28545;SDS011;15749;49.606;8.738;2022-11-02T00:04:43;3.40;;;2.10;;
28545;SDS011;15749;49.606;8.738;2022-11-02T00:07:31;3.60;;;2.30;;
28545;SDS011;15749;49.606;8.738;2022-11-02T00:10:19;6.97;;;2.70;;
28545;SDS011;15749;49.606;8.738;2022-11-02T00:13:07;4.10;;;2.20;;
28545;SDS011;15749;49.606;8.738;2022-11-02T00:15:55;4.00;;;2.20;;
28545;SDS011;15749;49.606;8.738;2022-11-02T00:18:43;3.77;;;2.30;;
28545;SDS011;15749;49.606;8.738;2022-11-02T00:21:33;4.27;;;2.13;;
28545;SDS011;15749;49.606;8.738;2022-11-02T00:24:23;3.87;;;2.00;;
28545;SDS011;15749;49.606;8.738;2022-11-02T00:27:11;2.73;;;1.93;;
28545;SDS011;15749;49.606;8.738;2022-11-02T00:29:58;5.50;;;1.90;;
28545;SDS011;15749;49.606;8.738;2022-11-02T00:32:47;2.67;;;1.93;;
28545;SDS011;15749;49.606;8.738;2022-11-02T00:35:36;2.47;;;1.80;;
28545;SDS011;15749;49.606;8.738;2022-11-02T00:38:24;2.53;;;1.90;;
28545;SDS011;15749;49.606;8.738;2022-11-02T00:41:13;2.80;;;2.00;;
28545;SDS011;15749;49.606;8.738;2022-11-02T00:44:01;3.27;;;2.00;;
28545;SDS011;15749;49.606;8.738;2022-11-02T00:46:48;2.77;;;1.83;;
28545;SDS011;15749;49.606;8.738;2022-11-02T00:49:36;3.97;;;1.87;;
28545;SDS011;15749;49.606;8.738;2022-11-02T00:52:24;2.77;;;2.03;;
28545;SDS011;15749;49.606;8.738;2022-11-02T00:55:12;2.83;;;1.80;;
28545;SDS011;15749;49.606;8.738;2022-11-02T00:58:03;2.90;;;1.73;;
28545;SDS011;15749;49.606;8.738;2022-11-02T01:00:51;2.53;;;1.93;;
28545;SDS011;15749;49.606;8.738;2022-11-02T01:03:41;2.73;;;1.67;;
28545;SDS011;15749;49.606;8.738;2022-11-02T01:06:28;4.00;;;2.00;;
28545;SDS011;15749;49.606;8.738;2022-11-02T01:09:16;5.77;;;2.00;;
28545;SDS011;15749;49.606;8.738;2022-11-02T01:12:04;2.43;;;1.47;;
28545;SDS011;15749;49.606;8.738;2022-11-02T01:14:53;3.33;;;1.60;;
28545;SDS011;15749;49.606;8.738;2022-11-02T01:17:41;4.67;;;1.90;;
28545;SDS011;15749;49.606;8.738;2022-11-02T01:20:28;2.17;;;1.27;;
28545;SDS011;15749;49.606;8.738;2022-11-02T01:23:16;3.33;;;1.40;;
28545;SDS011;15749;49.606;8.738;2022-11-02T01:26:03;2.97;;;1.57;;
28545;SDS011;15749;49.606;8.738;2022-11-02T01:28:52;3.47;;;1.20;;
28545;SDS011;15749;49.606;8.738;2022-11-02T01:31:41;2.77;;;1.50;;
28545;SDS011;15749;49.606;8.738;2022-11-02T01:34:29;4.83;;;1.43;;
28545;SDS011;15749;49.606;8.738;2022-11-02T01:37:16;2.40;;;1.00;;
28545;SDS011;15749;49.606;8.738;2022-11-02T01:40:05;5.00;;;1.13;;
28545;SDS011;15749;49.606;8.738;2022-11-02T01:42:54;2.30;;;0.97;;
28545;SDS011;15749;49.606;8.738;2022-11-02T01:45:41;2.33;;;1.20;;
28545;SDS011;15749;49.606;8.738;2022-11-02T01:48:31;4.37;;;1.10;;
28545;SDS011;15749;49.606;8.738;2022-11-02T01:51:24;1.70;;;1.00;;
28545;SDS011;15749;49.606;8.738;2022-11-02T01:54:17;2.27;;;1.00;;
28545;SDS011;15749;49.606;8.738;2022-11-02T01:57:11;3.17;;;0.80;;
28545;SDS011;15749;49.606;8.738;2022-11-02T02:00:04;2.90;;;0.93;;
28545;SDS011;15749;49.606;8.738;2022-11-02T02:02:59;2.27;;;1.03;;
28545;SDS011;15749;49.606;8.738;2022-11-02T02:05:55;1.90;;;0.70;;
28545;SDS011;15749;49.606;8.738;2022-11-02T02:08:48;1.43;;;0.60;;
28545;SDS011;15749;49.606;8.738;2022-11-02T02:11:37;2.13;;;0.80;;
28545;SDS011;15749;49.606;8.738;2022-11-02T02:14:26;2.60;;;1.10;;
28545;SDS011;15749;49.606;8.738;2022-11-02T02:17:21;4.13;;;1.13;;
28545;SDS011;15749;49.606;8.738;2022-11-02T02:20:21;3.30;;;0.90;;
28545;SDS011;15749;49.606;8.738;2022-11-02T02:26:56;6.47;;;1.00;;
28545;SDS011;15749;49.606;8.738;2022-11-02T02:30:00;3.70;;;0.80;;
28545;SDS011;15749;49.606;8.738;2022-11-02T02:32:53;2.27;;;0.90;;
28545;SDS011;15749;49.606;8.738;2022-11-02T02:35:47;3.07;;;0.80;;
28545;SDS011;15749;49.606;8.738;2022-11-02T02:38:44;3.57;;;1.00;;
28545;SDS011;15749;49.606;8.738;2022-11-02T02:41:38;4.37;;;1.00;;
28545;SDS011;15749;49.606;8.738;2022-11-02T02:44:31;4.77;;;1.00;;
28545;SDS011;15749;49.606;8.738;2022-11-02T02:47:23;2.93;;;0.90;;
28545;SDS011;15749;49.606;8.738;2022-11-02T02:50:18;3.57;;;1.00;;
28545;SDS011;15749;49.606;8.738;2022-11-02T02:53:11;2.23;;;0.90;;
28545;SDS011;15749;49.606;8.738;2022-11-02T02:56:01;4.63;;;1.30;;
28545;SDS011;15749;49.606;8.738;2022-11-02T02:58:52;3.47;;;1.13;;
28545;SDS011;15749;49.606;8.738;2022-11-02T03:01:46;4.27;;;1.10;;
28545;SDS011;15749;49.606;8.738;2022-11-02T03:04:37;5.83;;;1.10;;
28545;SDS011;15749;49.606;8.738;2022-11-02T03:07:26;2.53;;;0.80;;
28545;SDS011;15749;49.606;8.738;2022-11-02T03:10:21;3.67;;;1.00;;
28545;SDS011;15749;49.606;8.738;2022-11-02T03:13:19;2.93;;;1.10;;
28545;SDS011;15749;49.606;8.738;2022-11-02T03:16:25;2.70;;;1.10;;
28545;SDS011;15749;49.606;8.738;2022-11-02T03:19:34;1.50;;;0.70;;
28545;SDS011;15749;49.606;8.738;2022-11-02T03:22:38;2.63;;;1.10;;
28545;SDS011;15749;49.606;8.738;2022-11-02T03:25:40;4.03;;;1.23;;
28545;SDS011;15749;49.606;8.738;2022-11-02T03:28:41;2.80;;;1.13;;
28545;SDS011;15749;49.606;8.738;2022-11-02T03:31:42;3.17;;;1.20;;
28545;SDS011;15749;49.606;8.738;2022-11-02T03:34:36;3.23;;;1.13;;
28545;SDS011;15749;49.606;8.738;2022-11-02T03:37:30;3.60;;;1.20;;
28545;SDS011;15749;49.606;8.738;2022-11-02T03:40:24;3.67;;;1.10;;
28545;SDS011;15749;49.606;8.738;2022-11-02T03:43:16;2.37;;;0.90;;
28545;SDS011;15749;49.606;8.738;2022-11-02T03:46:09;2.53;;;1.20;;
28545;SDS011;15749;49.606;8.738;2022-11-02T03:48:58;4.33;;;1.10;;
28545;SDS011;15749;49.606;8.738;2022-11-02T03:51:55;2.87;;;1.07;;
28545;SDS011;15749;49.606;8.738;2022-11-02T03:54:50;2.60;;;1.00;;
28545;SDS011;15749;49.606;8.738;2022-11-02T03:57:47;1.90;;;0.83;;
28545;SDS011;15749;49.606;8.738;2022-11-02T04:03:26;4.27;;;1.00;;
28545;SDS011;15749;49.606;8.738;2022-11-02T04:06:26;2.07;;;1.00;;
28545;SDS011;15749;49.606;8.738;2022-11-02T04:09:23;4.67;;;0.90;;
28545;SDS011;15749;49.606;8.738;2022-11-02T04:12:24;3.53;;;1.10;;
28545;SDS011;15749;49.606;8.738;2022-11-02T04:15:30;3.53;;;1.20;;
28545;SDS011;15749;49.606;8.738;2022-11-02T04:18:21;4.43;;;1.50;;
28545;SDS011;15749;49.606;8.738;2022-11-02T04:21:27;3.80;;;1.33;;
28545;SDS011;15749;49.606;8.738;2022-11-02T04:24:17;4.93;;;1.30;;
28545;SDS011;15749;49.606;8.738;2022-11-02T04:27:39;3.07;;;1.10;;
28545;SDS011;15749;49.606;8.738;2022-11-02T04:30:28;3.27;;;1.30;;
28545;SDS011;15749;49.606;8.738;2022-11-02T04:33:17;2.43;;;1.00;;
28545;SDS011;15749;49.606;8.738;2022-11-02T04:36:49;2.40;;;1.07;;
28545;SDS011;15749;49.606;8.738;2022-11-02T04:39:36;3.50;;;0.80;;
28545;SDS011;15749;49.606;8.738;2022-11-02T04:42:24;3.97;;;1.27;;
28545;SDS011;15749;49.606;8.738;2022-11-02T04:45:17;1.97;;;0.90;;
28545;SDS011;15749;49.606;8.738;2022-11-02T04:48:07;3.20;;;1.27;;
28545;SDS011;15749;49.606;8.738;2022-11-02T04:51:15;3.47;;;1.10;;
28545;SDS011;15749;49.606;8.738;2022-11-02T04:54:05;4.03;;;1.30;;
28545;SDS011;15749;49.606;8.738;2022-11-02T04:57:12;3.77;;;1.20;;
28545;SDS011;15749;49.606;8.738;2022-11-02T05:00:25;4.33;;;1.23;;
28545;SDS011;15749;49.606;8.738;2022-11-02T05:03:13;3.33;;;1.30;;
28545;SDS011;15749;49.606;8.738;2022-11-02T05:06:02;6.87;;;1.43;;
28545;SDS011;15749;49.606;8.738;2022-11-02T05:09:17;5.07;;;1.40;;
28545;SDS011;15749;49.606;8.738;2022-11-02T05:12:13;4.13;;;1.20;;
28545;SDS011;15749;49.606;8.738;2022-11-02T05:15:17;3.47;;;1.40;;
28545;SDS011;15749;49.606;8.738;2022-11-02T05:31:40;3.43;;;1.13;;
28545;SDS011;15749;49.606;8.738;2022-11-02T05:34:42;2.83;;;0.93;;
28545;SDS011;15749;49.606;8.738;2022-11-02T05:42:26;2.97;;;1.10;;
28545;SDS011;15749;49.606;8.738;2022-11-02T05:45:49;3.33;;;1.20;;
28545;SDS011;15749;49.606;8.738;2022-11-02T05:49:35;3.77;;;1.03;;
28545;SDS011;15749;49.606;8.738;2022-11-02T06:03:30;3.03;;;1.00;;
28545;SDS011;15749;49.606;8.738;2022-11-02T06:06:21;3.27;;;1.20;;
28545;SDS011;15749;49.606;8.738;2022-11-02T06:09:10;2.10;;;1.20;;
28545;SDS011;15749;49.606;8.738;2022-11-02T06:13:03;6.23;;;1.27;;
28545;SDS011;15749;49.606;8.738;2022-11-02T06:16:13;3.60;;;1.07;;
28545;SDS011;15749;49.606;8.738;2022-11-02T06:31:00;3.47;;;1.00;;
28545;SDS011;15749;49.606;8.738;2022-11-02T06:33:48;2.60;;;0.97;;
28545;SDS011;15749;49.606;8.738;2022-11-02T06:36:36;2.60;;;1.00;;
28545;SDS011;15749;49.606;8.738;2022-11-02T06:39:24;4.67;;;1.27;;
28545;SDS011;15749;49.606;8.738;2022-11-02T06:42:15;2.73;;;1.03;;
28545;SDS011;15749;49.606;8.738;2022-11-02T06:46:44;3.73;;;1.13;;
28545;SDS011;15749;49.606;8.738;2022-11-02T06:49:33;3.00;;;1.10;;
28545;SDS011;15749;49.606;8.738;2022-11-02T06:52:28;6.30;;;1.47;;
28545;SDS011;15749;49.606;8.738;2022-11-02T06:59:44;3.23;;;1.00;;
28545;SDS011;15749;49.606;8.738;2022-11-02T07:03:20;3.47;;;1.00;;
28545;SDS011;15749;49.606;8.738;2022-11-02T07:08:40;3.07;;;1.10;;
28545;SDS011;15749;49.606;8.738;2022-11-02T07:11:28;3.13;;;1.00;;
28545;SDS011;15749;49.606;8.738;2022-11-02T07:16:02;3.77;;;1.00;;
28545;SDS011;15749;49.606;8.738;2022-11-02T07:21:25;1.93;;;0.90;;
28545;SDS011;15749;49.606;8.738;2022-11-02T07:28:05;1.47;;;0.70;;
28545;SDS011;15749;49.606;8.738;2022-11-02T07:30:36;5.63;;;1.37;;
28545;SDS011;15749;49.606;8.738;2022-11-02T07:33:16;3.90;;;1.03;;
28545;SDS011;15749;49.606;8.738;2022-11-02T07:35:46;3.97;;;1.30;;
28545;SDS011;15749;49.606;8.738;2022-11-02T07:38:15;1.90;;;1.03;;
28545;SDS011;15749;49.606;8.738;2022-11-02T07:41:48;5.00;;;1.10;;
28545;SDS011;15749;49.606;8.738;2022-11-02T07:44:18;4.10;;;1.07;;
28545;SDS011;15749;49.606;8.738;2022-11-02T07:46:56;2.80;;;1.20;;
28545;SDS011;15749;49.606;8.738;2022-11-02T07:49:26;4.63;;;1.20;;
28545;SDS011;15749;49.606;8.738;2022-11-02T07:51:57;4.63;;;1.50;;
28545;SDS011;15749;49.606;8.738;2022-11-02T07:54:26;3.60;;;1.37;;
28545;SDS011;15749;49.606;8.738;2022-11-02T07:56:56;2.20;;;0.97;;
28545;SDS011;15749;49.606;8.738;2022-11-02T07:59:25;5.00;;;1.40;;
28545;SDS011;15749;49.606;8.738;2022-11-02T08:01:54;6.13;;;1.50;;
28545;SDS011;15749;49.606;8.738;2022-11-02T08:04:23;3.67;;;1.50;;
28545;SDS011;15749;49.606;8.738;2022-11-02T08:06:53;3.10;;;1.10;;
28545;SDS011;15749;49.606;8.738;2022-11-02T08:09:26;3.73;;;1.33;;
28545;SDS011;15749;49.606;8.738;2022-11-02T08:11:56;3.17;;;1.10;;
28545;SDS011;15749;49.606;8.738;2022-11-02T08:14:32;4.00;;;1.40;;
28545;SDS011;15749;49.606;8.738;2022-11-02T08:17:02;2.70;;;1.17;;
28545;SDS011;15749;49.606;8.738;2022-11-02T08:19:31;4.27;;;1.37;;
28545;SDS011;15749;49.606;8.738;2022-11-02T08:22:04;2.80;;;1.30;;
28545;SDS011;15749;49.606;8.738;2022-11-02T08:24:33;4.13;;;1.20;;
28545;SDS011;15749;49.606;8.738;2022-11-02T08:27:03;4.83;;;1.27;;
28545;SDS011;15749;49.606;8.738;2022-11-02T08:29:33;4.60;;;1.50;;
28545;SDS011;15749;49.606;8.738;2022-11-02T08:32:03;4.73;;;1.27;;
28545;SDS011;15749;49.606;8.738;2022-11-02T08:34:33;3.93;;;1.67;;
28545;SDS011;15749;49.606;8.738;2022-11-02T08:37:06;4.40;;;1.47;;
28545;SDS011;15749;49.606;8.738;2022-11-02T08:39:36;4.23;;;1.53;;
28545;SDS011;15749;49.606;8.738;2022-11-02T08:42:06;4.10;;;1.60;;
28545;SDS011;15749;49.606;8.738;2022-11-02T08:44:36;4.23;;;1.50;;
28545;SDS011;15749;49.606;8.738;2022-11-02T08:47:09;5.87;;;1.23;;
28545;SDS011;15749;49.606;8.738;2022-11-02T08:49:38;4.73;;;1.60;;
28545;SDS011;15749;49.606;8.738;2022-11-02T08:52:09;5.17;;;1.50;;
28545;SDS011;15749;49.606;8.738;2022-11-02T08:54:39;6.23;;;1.80;;
28545;SDS011;15749;49.606;8.738;2022-11-02T08:57:09;2.77;;;1.33;;
28545;SDS011;15749;49.606;8.738;2022-11-02T08:59:38;5.60;;;1.60;;
28545;SDS011;15749;49.606;8.738;2022-11-02T09:02:08;3.93;;;1.73;;
28545;SDS011;15749;49.606;8.738;2022-11-02T09:04:38;3.10;;;1.50;;
28545;SDS011;15749;49.606;8.738;2022-11-02T09:07:14;4.73;;;1.47;;
28545;SDS011;15749;49.606;8.738;2022-11-02T09:09:47;4.97;;;1.30;;
28545;SDS011;15749;49.606;8.738;2022-11-02T09:12:17;3.47;;;1.50;;
28545;SDS011;15749;49.606;8.738;2022-11-02T09:14:48;3.30;;;1.50;;
28545;SDS011;15749;49.606;8.738;2022-11-02T09:17:17;5.63;;;1.47;;
28545;SDS011;15749;49.606;8.738;2022-11-02T09:19:47;2.70;;;1.40;;
28545;SDS011;15749;49.606;8.738;2022-11-02T09:22:18;3.70;;;1.10;;
28545;SDS011;15749;49.606;8.738;2022-11-02T09:24:47;3.27;;;1.37;;
28545;SDS011;15749;49.606;8.738;2022-11-02T09:27:16;4.70;;;1.43;;
28545;SDS011;15749;49.606;8.738;2022-11-02T09:29:45;3.27;;;1.57;;
28545;SDS011;15749;49.606;8.738;2022-11-02T09:32:15;5.73;;;1.60;;
28545;SDS011;15749;49.606;8.738;2022-11-02T09:34:45;3.47;;;1.63;;
28545;SDS011;15749;49.606;8.738;2022-11-02T09:37:18;3.27;;;1.40;;
28545;SDS011;15749;49.606;8.738;2022-11-02T09:39:48;4.57;;;1.53;;
28545;SDS011;15749;49.606;8.738;2022-11-02T09:42:18;5.73;;;1.43;;
28545;SDS011;15749;49.606;8.738;2022-11-02T09:44:55;4.73;;;1.87;;
28545;SDS011;15749;49.606;8.738;2022-11-02T09:47:29;4.27;;;1.47;;
28545;SDS011;15749;49.606;8.738;2022-11-02T09:50:29;4.13;;;1.83;;
28545;SDS011;15749;49.606;8.738;2022-11-02T09:53:09;7.30;;;1.70;;
28545;SDS011;15749;49.606;8.738;2022-11-02T09:55:48;2.90;;;1.23;;
28545;SDS011;15749;49.606;8.738;2022-11-02T09:58:20;4.90;;;1.75;;
28545;SDS011;15749;49.606;8.738;2022-11-02T10:00:58;3.20;;;1.58;;
28545;SDS011;15749;49.606;8.738;2022-11-02T10:03:42;2.75;;;1.50;;
28545;SDS011;15749;49.606;8.738;2022-11-02T10:06:30;4.18;;;1.55;;
28545;SDS011;15749;49.606;8.738;2022-11-02T10:09:05;4.45;;;1.40;;
28545;SDS011;15749;49.606;8.738;2022-11-02T10:11:43;3.67;;;1.45;;
28545;SDS011;15749;49.606;8.738;2022-11-02T10:14:23;3.58;;;1.60;;
28545;SDS011;15749;49.606;8.738;2022-11-02T10:17:08;6.68;;;1.70;;
28545;SDS011;15749;49.606;8.738;2022-11-02T10:19:43;4.20;;;1.75;;
28545;SDS011;15749;49.606;8.738;2022-11-02T10:22:18;3.28;;;1.42;;
28545;SDS011;15749;49.606;8.738;2022-11-02T10:24:53;4.65;;;1.42;;
28545;SDS011;15749;49.606;8.738;2022-11-02T10:27:25;4.22;;;1.65;;
28545;SDS011;15749;49.606;8.738;2022-11-02T10:30:00;6.15;;;1.70;;
28545;SDS011;15749;49.606;8.738;2022-11-02T10:32:35;3.92;;;1.40;;
28545;SDS011;15749;49.606;8.738;2022-11-02T10:35:11;3.58;;;1.27;;
28545;SDS011;15749;49.606;8.738;2022-11-02T10:38:14;4.32;;;1.42;;
28545;SDS011;15749;49.606;8.738;2022-11-02T10:41:03;3.38;;;1.30;;
28545;SDS011;15749;49.606;8.738;2022-11-02T10:43:46;3.30;;;1.10;;
28545;SDS011;15749;49.606;8.738;2022-11-02T10:46:46;3.20;;;1.65;;
28545;SDS011;15749;49.606;8.738;2022-11-02T10:49:37;4.80;;;1.40;;
28545;SDS011;15749;49.606;8.738;2022-11-02T10:52:41;5.82;;;1.67;;
28545;SDS011;15749;49.606;8.738;2022-11-02T10:55:17;5.40;;;1.50;;
28545;SDS011;15749;49.606;8.738;2022-11-02T10:57:55;5.85;;;1.60;;
28545;SDS011;15749;49.606;8.738;2022-11-02T11:00:29;3.80;;;1.63;;
28545;SDS011;15749;49.606;8.738;2022-11-02T11:03:05;4.15;;;1.38;;
28545;SDS011;15749;49.606;8.738;2022-11-02T11:05:41;5.25;;;1.20;;
28545;SDS011;15749;49.606;8.738;2022-11-02T11:08:27;4.75;;;1.52;;
28545;SDS011;15749;49.606;8.738;2022-11-02T11:11:13;3.88;;;1.48;;
28545;SDS011;15749;49.606;8.738;2022-11-02T11:13:58;4.40;;;1.40;;
28545;SDS011;15749;49.606;8.738;2022-11-02T11:16:51;4.80;;;1.50;;
28545;SDS011;15749;49.606;8.738;2022-11-02T11:19:46;2.97;;;1.10;;
28545;SDS011;15749;49.606;8.738;2022-11-02T11:22:23;4.53;;;1.40;;
28545;SDS011;15749;49.606;8.738;2022-11-02T11:25:17;5.13;;;1.60;;
28545;SDS011;15749;49.606;8.738;2022-11-02T11:27:55;6.63;;;1.52;;
28545;SDS011;15749;49.606;8.738;2022-11-02T11:30:28;3.55;;;1.30;;
28545;SDS011;15749;49.606;8.738;2022-11-02T11:33:20;3.15;;;1.35;;
28545;SDS011;15749;49.606;8.738;2022-11-02T11:35:50;5.47;;;1.73;;
28545;SDS011;15749;49.606;8.738;2022-11-02T11:38:21;4.50;;;1.30;;
28545;SDS011;15749;49.606;8.738;2022-11-02T11:40:54;3.42;;;1.17;;
28545;SDS011;15749;49.606;8.738;2022-11-02T11:43:27;5.80;;;1.90;;
28545;SDS011;15749;49.606;8.738;2022-11-02T11:46:06;4.25;;;1.50;;
28545;SDS011;15749;49.606;8.738;2022-11-02T11:48:38;3.90;;;1.27;;
28545;SDS011;15749;49.606;8.738;2022-11-02T11:54:16;4.75;;;1.48;;
28545;SDS011;15749;49.606;8.738;2022-11-02T11:56:51;4.70;;;1.40;;
28545;SDS011;15749;49.606;8.738;2022-11-02T11:59:28;2.88;;;1.25;;
28545;SDS011;15749;49.606;8.738;2022-11-02T12:02:01;3.05;;;1.20;;
28545;SDS011;15749;49.606;8.738;2022-11-02T12:04:49;3.25;;;1.13;;
28545;SDS011;15749;49.606;8.738;2022-11-02T12:07:30;4.70;;;1.30;;
28545;SDS011;15749;49.606;8.738;2022-11-02T12:10:44;2.78;;;1.10;;
28545;SDS011;15749;49.606;8.738;2022-11-02T12:13:50;3.90;;;1.20;;
28545;SDS011;15749;49.606;8.738;2022-11-02T12:16:43;3.50;;;1.20;;
28545;SDS011;15749;49.606;8.738;2022-11-02T12:19:36;3.33;;;1.35;;
28545;SDS011;15749;49.606;8.738;2022-11-02T12:22:28;2.03;;;1.05;;
28545;SDS011;15749;49.606;8.738;2022-11-02T12:25:15;2.95;;;1.20;;
28545;SDS011;15749;49.606;8.738;2022-11-02T12:28:02;1.95;;;1.05;;
28545;SDS011;15749;49.606;8.738;2022-11-02T12:30:49;2.80;;;1.17;;
28545;SDS011;15749;49.606;8.738;2022-11-02T12:33:37;2.28;;;0.93;;
28545;SDS011;15749;49.606;8.738;2022-11-02T12:36:25;4.35;;;1.27;;
28545;SDS011;15749;49.606;8.738;2022-11-02T12:39:26;5.72;;;1.13;;
28545;SDS011;15749;49.606;8.738;2022-11-02T12:42:12;4.40;;;1.20;;
28545;SDS011;15749;49.606;8.738;2022-11-02T12:44:58;4.07;;;1.23;;
28545;SDS011;15749;49.606;8.738;2022-11-02T12:47:54;3.63;;;1.30;;
28545;SDS011;15749;49.606;8.738;2022-11-02T12:50:34;4.22;;;1.20;;
28545;SDS011;15749;49.606;8.738;2022-11-02T12:53:22;4.53;;;1.20;;
28545;SDS011;15749;49.606;8.738;2022-11-02T12:56:14;9.23;;;1.40;;
28545;SDS011;15749;49.606;8.738;2022-11-02T12:58:49;6.20;;;1.20;;
28545;SDS011;15749;49.606;8.738;2022-11-02T13:01:22;2.13;;;1.13;;
28545;SDS011;15749;49.606;8.738;2022-11-02T13:03:57;2.70;;;1.00;;
28545;SDS011;15749;49.606;8.738;2022-11-02T13:06:40;5.20;;;1.40;;
28545;SDS011;15749;49.606;8.738;2022-11-02T13:09:13;2.30;;;1.10;;
28545;SDS011;15749;49.606;8.738;2022-11-02T13:11:51;1.90;;;1.10;;
28545;SDS011;15749;49.606;8.738;2022-11-02T13:14:28;2.77;;;1.43;;
28545;SDS011;15749;49.606;8.738;2022-11-02T13:17:10;2.77;;;1.20;;
28545;SDS011;15749;49.606;8.738;2022-11-02T13:19:44;5.30;;;1.13;;
28545;SDS011;15749;49.606;8.738;2022-11-02T13:22:20;2.47;;;0.97;;
28545;SDS011;15749;49.606;8.738;2022-11-02T13:24:57;2.97;;;0.90;;
28545;SDS011;15749;49.606;8.738;2022-11-02T13:27:35;2.43;;;0.90;;
28545;SDS011;15749;49.606;8.738;2022-11-02T13:30:14;1.87;;;0.77;;
28545;SDS011;15749;49.606;8.738;2022-11-02T13:32:47;3.20;;;1.23;;
28545;SDS011;15749;49.606;8.738;2022-11-02T13:35:26;4.00;;;1.07;;
28545;SDS011;15749;49.606;8.738;2022-11-02T13:38:03;3.97;;;1.10;;
28545;SDS011;15749;49.606;8.738;2022-11-02T13:40:47;1.90;;;0.97;;
28545;SDS011;15749;49.606;8.738;2022-11-02T13:43:32;1.40;;;0.70;;
28545;SDS011;15749;49.606;8.738;2022-11-02T13:46:32;2.27;;;1.10;;
28545;SDS011;15749;49.606;8.738;2022-11-02T13:49:29;3.37;;;1.23;;
28545;SDS011;15749;49.606;8.738;2022-11-02T13:52:02;2.40;;;0.90;;
28545;SDS011;15749;49.606;8.738;2022-11-02T13:54:43;3.20;;;1.10;;
28545;SDS011;15749;49.606;8.738;2022-11-02T13:57:20;2.30;;;0.90;;
28545;SDS011;15749;49.606;8.738;2022-11-02T14:00:00;4.53;;;1.30;;
28545;SDS011;15749;49.606;8.738;2022-11-02T14:02:35;2.93;;;0.90;;
28545;SDS011;15749;49.606;8.738;2022-11-02T14:05:09;4.23;;;1.10;;
28545;SDS011;15749;49.606;8.738;2022-11-02T14:07:53;5.57;;;1.03;;
28545;SDS011;15749;49.606;8.738;2022-11-02T14:10:30;3.73;;;1.30;;
28545;SDS011;15749;49.606;8.738;2022-11-02T14:13:04;1.60;;;0.73;;
28545;SDS011;15749;49.606;8.738;2022-11-02T14:15:37;3.43;;;1.00;;
28545;SDS011;15749;49.606;8.738;2022-11-02T14:18:10;2.27;;;1.10;;
28545;SDS011;15749;49.606;8.738;2022-11-02T14:20:58;5.27;;;1.10;;
28545;SDS011;15749;49.606;8.738;2022-11-02T14:27:30;4.00;;;1.33;;
28545;SDS011;15749;49.606;8.738;2022-11-02T14:30:18;3.60;;;1.20;;
28545;SDS011;15749;49.606;8.738;2022-11-02T14:36:31;2.90;;;1.00;;
28545;SDS011;15749;49.606;8.738;2022-11-02T14:39:18;2.27;;;0.87;;
28545;SDS011;15749;49.606;8.738;2022-11-02T14:44:59;2.00;;;1.10;;
28545;SDS011;15749;49.606;8.738;2022-11-02T14:47:54;2.70;;;0.87;;
28545;SDS011;15749;49.606;8.738;2022-11-02T14:50:27;3.73;;;0.80;;
28545;SDS011;15749;49.606;8.738;2022-11-02T14:52:57;3.10;;;1.10;;
28545;SDS011;15749;49.606;8.738;2022-11-02T14:55:32;3.37;;;1.10;;
28545;SDS011;15749;49.606;8.738;2022-11-02T14:58:04;3.70;;;0.90;;
28545;SDS011;15749;49.606;8.738;2022-11-02T15:00:53;2.83;;;1.10;;
28545;SDS011;15749;49.606;8.738;2022-11-02T15:03:32;1.60;;;0.70;;
28545;SDS011;15749;49.606;8.738;2022-11-02T15:06:05;2.93;;;1.20;;
28545;SDS011;15749;49.606;8.738;2022-11-02T15:08:48;1.83;;;0.90;;
28545;SDS011;15749;49.606;8.738;2022-11-02T15:20:44;2.80;;;1.13;;
28545;SDS011;15749;49.606;8.738;2022-11-02T15:23:15;4.33;;;1.13;;
28545;SDS011;15749;49.606;8.738;2022-11-02T15:25:58;3.20;;;1.30;;
28545;SDS011;15749;49.606;8.738;2022-11-02T15:28:28;3.40;;;1.10;;
28545;SDS011;15749;49.606;8.738;2022-11-02T15:31:03;3.53;;;1.30;;
28545;SDS011;15749;49.606;8.738;2022-11-02T15:33:43;2.90;;;1.00;;
28545;SDS011;15749;49.606;8.738;2022-11-02T15:36:19;4.63;;;1.20;;
28545;SDS011;15749;49.606;8.738;2022-11-02T15:38:56;3.23;;;1.40;;
28545;SDS011;15749;49.606;8.738;2022-11-02T15:41:33;3.53;;;1.20;;
28545;SDS011;15749;49.606;8.738;2022-11-02T15:47:06;2.47;;;1.00;;
28545;SDS011;15749;49.606;8.738;2022-11-02T15:50:17;4.40;;;1.40;;
28545;SDS011;15749;49.606;8.738;2022-11-02T15:56:38;5.70;;;1.57;;
28545;SDS011;15749;49.606;8.738;2022-11-02T15:59:24;4.27;;;1.57;;
28545;SDS011;15749;49.606;8.738;2022-11-02T16:02:22;3.57;;;1.43;;
28545;SDS011;15749;49.606;8.738;2022-11-02T16:04:56;4.17;;;1.50;;
28545;SDS011;15749;49.606;8.738;2022-11-02T16:07:29;4.40;;;1.20;;
28545;SDS011;15749;49.606;8.738;2022-11-02T16:10:22;4.63;;;1.37;;
28545;SDS011;15749;49.606;8.738;2022-11-02T16:13:00;3.77;;;1.50;;
28545;SDS011;15749;49.606;8.738;2022-11-02T16:15:44;6.17;;;1.50;;
28545;SDS011;15749;49.606;8.738;2022-11-02T16:18:22;4.10;;;1.43;;
28545;SDS011;15749;49.606;8.738;2022-11-02T16:20:53;4.47;;;1.57;;
28545;SDS011;15749;49.606;8.738;2022-11-02T16:23:30;4.37;;;1.27;;
28545;SDS011;15749;49.606;8.738;2022-11-02T16:26:03;5.90;;;1.90;;
28545;SDS011;15749;49.606;8.738;2022-11-02T16:28:35;4.47;;;2.90;;
28545;SDS011;15749;49.606;8.738;2022-11-02T16:31:06;4.17;;;2.77;;
28545;SDS011;15749;49.606;8.738;2022-11-02T16:33:46;6.70;;;2.73;;
28545;SDS011;15749;49.606;8.738;2022-11-02T16:36:18;5.47;;;2.50;;
28545;SDS011;15749;49.606;8.738;2022-11-02T16:38:55;5.60;;;2.47;;
28545;SDS011;15749;49.606;8.738;2022-11-02T16:41:27;5.00;;;2.80;;
28545;SDS011;15749;49.606;8.738;2022-11-02T16:43:59;4.40;;;2.07;;
28545;SDS011;15749;49.606;8.738;2022-11-02T16:46:39;4.47;;;2.23;;
28545;SDS011;15749;49.606;8.738;2022-11-02T16:49:13;7.80;;;2.20;;
28545;SDS011;15749;49.606;8.738;2022-11-02T16:51:49;3.53;;;1.90;;
28545;SDS011;15749;49.606;8.738;2022-11-02T16:54:29;3.33;;;1.70;;
28545;SDS011;15749;49.606;8.738;2022-11-02T16:57:11;5.17;;;1.97;;
28545;SDS011;15749;49.606;8.738;2022-11-02T16:59:47;4.73;;;2.20;;
28545;SDS011;15749;49.606;8.738;2022-11-02T17:02:27;4.37;;;1.80;;
28545;SDS011;15749;49.606;8.738;2022-11-02T17:05:00;4.33;;;1.80;;
28545;SDS011;15749;49.606;8.738;2022-11-02T17:07:33;4.50;;;2.07;;
28545;SDS011;15749;49.606;8.738;2022-11-02T17:10:16;5.87;;;2.63;;
28545;SDS011;15749;49.606;8.738;2022-11-02T17:12:47;5.27;;;3.37;;
28545;SDS011;15749;49.606;8.738;2022-11-02T17:15:18;5.60;;;3.00;;
28545;SDS011;15749;49.606;8.738;2022-11-02T17:17:49;6.03;;;3.23;;
28545;SDS011;15749;49.606;8.738;2022-11-02T17:20:43;5.63;;;2.77;;
28545;SDS011;15749;49.606;8.738;2022-11-02T17:23:28;5.50;;;2.90;;
28545;SDS011;15749;49.606;8.738;2022-11-02T17:29:00;4.87;;;2.80;;
28545;SDS011;15749;49.606;8.738;2022-11-02T17:31:46;8.07;;;6.23;;
28545;SDS011;15749;49.606;8.738;2022-11-02T17:34:24;9.47;;;4.83;;
28545;SDS011;15749;49.606;8.738;2022-11-02T17:36:54;7.93;;;4.70;;
28545;SDS011;15749;49.606;8.738;2022-11-02T17:39:23;8.90;;;6.23;;
28545;SDS011;15749;49.606;8.738;2022-11-02T17:41:54;36.07;;;26.20;;
28545;SDS011;15749;49.606;8.738;2022-11-02T17:44:45;16.60;;;12.03;;
28545;SDS011;15749;49.606;8.738;2022-11-02T17:47:15;15.43;;;10.53;;
28545;SDS011;15749;49.606;8.738;2022-11-02T17:49:45;13.03;;;9.73;;
28545;SDS011;15749;49.606;8.738;2022-11-02T17:52:15;11.07;;;7.77;;
28545;SDS011;15749;49.606;8.738;2022-11-02T17:54:44;9.80;;;6.60;;
28545;SDS011;15749;49.606;8.738;2022-11-02T17:57:14;12.03;;;7.80;;
28545;SDS011;15749;49.606;8.738;2022-11-02T17:59:45;23.17;;;15.50;;
28545;SDS011;15749;49.606;8.738;2022-11-02T18:02:14;13.77;;;9.20;;
28545;SDS011;15749;49.606;8.738;2022-11-02T18:04:43;10.27;;;6.23;;
28545;SDS011;15749;49.606;8.738;2022-11-02T18:07:13;8.20;;;4.30;;